createdAt,value
2018-11-22T00:00:42.321Z,52.70
2018-11-22T00:01:42.432Z,62.90
2018-11-22T00:02:42.472Z,64.70
2018-11-22T00:03:42.365Z,58.50
2018-11-22T00:04:42.372Z,62.00
2018-11-22T00:05:42.393Z,62.60
2018-11-22T00:06:42.633Z,72.80
2018-11-22T00:07:42.410Z,60.70
2018-11-22T00:08:42.478Z,60.90
2018-11-22T00:09:42.444Z,62.30
2018-11-22T00:10:42.580Z,60.00
2018-11-22T00:11:42.743Z,57.60
2018-11-22T00:12:42.477Z,57.10
2018-11-22T00:13:42.497Z,63.80
2018-11-22T00:14:42.520Z,58.60
2018-11-22T00:15:42.522Z,60.50
2018-11-22T00:16:42.687Z,58.10
2018-11-22T00:17:42.544Z,66.70
2018-11-22T00:18:42.684Z,58.70
2018-11-22T00:19:42.705Z,59.20
2018-11-22T00:20:42.596Z,61.10
2018-11-22T00:21:42.714Z,57.20
2018-11-22T00:22:42.743Z,58.90
2018-11-22T00:23:42.631Z,58.70
2018-11-22T00:24:42.640Z,60.60
2018-11-22T00:25:42.648Z,63.70
2018-11-22T00:26:42.824Z,64.30
2018-11-22T00:27:42.677Z,63.00
2018-11-22T00:28:42.706Z,70.00
2018-11-22T00:29:42.726Z,70.70
2018-11-22T00:30:42.729Z,59.60
2018-11-22T00:31:42.885Z,64.10
2018-11-22T00:32:42.747Z,71.00
2018-11-22T00:33:42.772Z,70.70
2018-11-22T00:34:42.901Z,68.80
2018-11-22T00:35:42.787Z,70.30
2018-11-22T00:36:42.843Z,78.20
2018-11-22T00:37:42.935Z,77.40
2018-11-22T00:38:42.878Z,82.40
2018-11-22T00:39:42.841Z,77.60
2018-11-22T00:40:42.854Z,82.40
2018-11-22T00:41:42.868Z,85.70
2018-11-22T00:42:43.105Z,93.70
2018-11-22T00:43:42.910Z,102.50
2018-11-22T00:44:42.899Z,101.30
2018-11-22T00:45:42.925Z,109.40
2018-11-22T00:46:42.939Z,109.30
2018-11-22T00:47:43.052Z,122.80
2018-11-22T00:48:42.958Z,130.60
2018-11-22T00:49:43.095Z,131.80
2018-11-22T00:50:42.979Z,125.80
2018-11-22T00:51:42.991Z,120.20
2018-11-22T00:52:43.237Z,134.20
2018-11-22T00:53:43.024Z,115.70
2018-11-22T00:54:43.036Z,123.00
2018-11-22T00:55:43.050Z,117.60
2018-11-22T00:56:43.057Z,103.30
2018-11-22T00:57:43.233Z,103.60
2018-11-22T00:58:43.091Z,93.00
2018-11-22T00:59:43.229Z,95.10
2018-11-22T01:00:43.131Z,89.70
2018-11-22T01:01:43.168Z,84.20
2018-11-22T01:02:43.186Z,82.60
2018-11-22T01:03:43.160Z,90.50
2018-11-22T01:04:43.293Z,83.50
2018-11-22T01:05:43.194Z,84.30
2018-11-22T01:06:43.189Z,71.90
2018-11-22T01:07:43.386Z,66.80
2018-11-22T01:08:43.227Z,70.10
2018-11-22T01:09:43.358Z,68.20
2018-11-22T01:10:43.250Z,64.60
2018-11-22T01:11:43.365Z,61.90
2018-11-22T01:12:43.398Z,63.20
2018-11-22T01:13:43.282Z,59.10
2018-11-22T01:14:43.309Z,64.60
2018-11-22T01:15:43.438Z,61.60
2018-11-22T01:16:43.439Z,64.30
2018-11-22T01:17:43.468Z,61.60
2018-11-22T01:18:43.354Z,64.20
2018-11-22T01:19:43.380Z,66.90
2018-11-22T01:20:43.393Z,70.70
2018-11-22T01:21:43.550Z,68.30
2018-11-22T01:22:43.533Z,71.50
2018-11-22T01:23:43.420Z,71.30
2018-11-22T01:24:43.558Z,63.60
2018-11-22T01:25:43.570Z,70.90
2018-11-22T01:26:43.561Z,73.40
2018-11-22T01:27:43.597Z,68.40
2018-11-22T01:28:43.610Z,72.70
2018-11-22T01:29:43.504Z,75.50
2018-11-22T01:30:43.507Z,80.60
2018-11-22T01:31:43.723Z,71.50
2018-11-22T01:32:43.544Z,70.70
2018-11-22T01:33:43.559Z,76.20
2018-11-22T01:34:43.584Z,82.40
2018-11-22T01:35:43.575Z,86.30
2018-11-22T01:36:43.645Z,89.00
2018-11-22T01:37:43.733Z,97.00
2018-11-22T01:38:43.670Z,105.20
2018-11-22T01:39:43.639Z,111.60
2018-11-22T01:40:43.655Z,103.40
2018-11-22T01:41:43.870Z,109.00
2018-11-22T01:42:43.713Z,117.90
2018-11-22T01:43:43.689Z,123.70
2018-11-22T01:44:43.703Z,137.90
2018-11-22T01:45:43.715Z,154.10
2018-11-22T01:46:43.885Z,152.70
2018-11-22T01:47:43.867Z,135.80
2018-11-22T01:48:43.881Z,133.40
2018-11-22T01:49:43.763Z,118.20
2018-11-22T01:50:43.781Z,123.70
2018-11-22T01:51:43.887Z,132.10
2018-11-22T01:52:43.812Z,131.90
2018-11-22T01:53:43.941Z,123.90
2018-11-22T01:54:43.959Z,158.10
2018-11-22T01:55:43.848Z,143.30
2018-11-22T01:56:44.027Z,145.10
2018-11-22T01:57:43.912Z,139.90
2018-11-22T01:58:43.887Z,145.00
2018-11-22T01:59:44.023Z,143.50
2018-11-22T02:00:43.912Z,165.70
2018-11-22T02:01:44.072Z,170.30
2018-11-22T02:02:43.981Z,134.30
2018-11-22T02:03:44.074Z,155.30
2018-11-22T02:04:43.966Z,157.70
2018-11-22T02:05:43.995Z,157.20
2018-11-22T02:06:44.157Z,169.40
2018-11-22T02:07:44.037Z,144.50
2018-11-22T02:08:44.063Z,129.80
2018-11-22T02:09:44.088Z,145.90
2018-11-22T02:10:44.170Z,155.90
2018-11-22T02:11:44.212Z,155.80
2018-11-22T02:12:44.065Z,142.30
2018-11-22T02:13:44.205Z,155.70
2018-11-22T02:14:44.095Z,160.00
2018-11-22T02:15:44.108Z,156.40
2018-11-22T02:16:44.295Z,161.50
2018-11-22T02:17:44.255Z,160.50
2018-11-22T02:18:44.157Z,145.70
2018-11-22T02:19:44.289Z,133.50
2018-11-22T02:20:44.403Z,158.30
2018-11-22T02:21:44.313Z,169.70
2018-11-22T02:22:44.204Z,132.80
2018-11-22T02:23:44.220Z,156.40
2018-11-22T02:24:44.270Z,120.40
2018-11-22T02:25:44.355Z,134.20
2018-11-22T02:26:44.379Z,118.30
2018-11-22T02:27:44.266Z,127.30
2018-11-22T02:28:44.287Z,117.40
2018-11-22T02:29:44.289Z,111.80
2018-11-22T02:30:44.394Z,113.90
2018-11-22T02:31:44.328Z,117.10
2018-11-22T02:32:44.462Z,113.30
2018-11-22T02:33:44.442Z,109.50
2018-11-22T02:34:44.353Z,115.40
2018-11-22T02:35:44.384Z,108.90
2018-11-22T02:36:44.397Z,107.90
2018-11-22T02:37:44.395Z,108.70
2018-11-22T02:38:44.507Z,122.60
2018-11-22T02:39:44.422Z,106.50
2018-11-22T02:40:44.560Z,108.40
2018-11-22T02:41:44.468Z,105.50
2018-11-22T02:42:44.471Z,103.50
2018-11-22T02:43:44.574Z,111.90
2018-11-22T02:44:44.620Z,105.50
2018-11-22T02:45:44.514Z,112.80
2018-11-22T02:46:44.527Z,113.10
2018-11-22T02:47:44.575Z,103.10
2018-11-22T02:48:44.665Z,103.40
2018-11-22T02:49:44.562Z,105.00
2018-11-22T02:50:44.574Z,99.70
2018-11-22T02:51:44.599Z,94.90
2018-11-22T02:52:44.603Z,94.40
2018-11-22T02:53:44.790Z,95.40
2018-11-22T02:54:44.627Z,104.10
2018-11-22T02:55:44.642Z,91.80
2018-11-22T02:56:44.658Z,99.10
2018-11-22T02:57:44.683Z,93.80
2018-11-22T02:58:44.772Z,90.40
2018-11-22T02:59:44.697Z,90.90
2018-11-22T03:00:44.715Z,88.10
2018-11-22T03:01:44.730Z,100.80
2018-11-22T03:02:44.726Z,96.60
2018-11-22T03:03:44.765Z,89.40
2018-11-22T03:04:44.865Z,86.60
2018-11-22T03:05:44.822Z,85.00
2018-11-22T03:06:44.908Z,82.20
2018-11-22T03:07:44.926Z,80.20
2018-11-22T03:08:44.815Z,73.20
2018-11-22T03:09:45.005Z,77.80
2018-11-22T03:10:44.935Z,84.90
2018-11-22T03:11:44.861Z,81.00
2018-11-22T03:12:44.869Z,81.60
2018-11-22T03:13:44.882Z,79.10
2018-11-22T03:14:44.916Z,78.30
2018-11-22T03:15:45.017Z,82.30
2018-11-22T03:16:44.928Z,74.00
2018-11-22T03:17:44.929Z,73.50
2018-11-22T03:18:44.959Z,75.10
2018-11-22T03:19:45.088Z,74.60
2018-11-22T03:20:45.068Z,72.80
2018-11-22T03:21:45.112Z,72.20
2018-11-22T03:22:45.003Z,73.90
2018-11-22T03:23:45.139Z,76.40
2018-11-22T03:24:45.037Z,72.20
2018-11-22T03:25:45.264Z,72.60
2018-11-22T03:26:45.055Z,71.50
2018-11-22T03:27:45.069Z,69.10
2018-11-22T03:28:45.086Z,71.70
2018-11-22T03:29:45.219Z,72.80
2018-11-22T03:30:45.156Z,67.20
2018-11-22T03:31:45.249Z,71.00
2018-11-22T03:32:45.140Z,70.40
2018-11-22T03:33:45.164Z,67.50
2018-11-22T03:34:45.265Z,67.50
2018-11-22T03:35:45.300Z,68.80
2018-11-22T03:36:45.195Z,66.80
2018-11-22T03:37:45.329Z,69.50
2018-11-22T03:38:45.220Z,66.80
2018-11-22T03:39:45.340Z,65.50
2018-11-22T03:40:45.249Z,63.30
2018-11-22T03:41:45.296Z,64.70
2018-11-22T03:42:45.277Z,73.40
2018-11-22T03:43:45.295Z,68.50
2018-11-22T03:44:45.525Z,63.60
2018-11-22T03:45:45.439Z,71.30
2018-11-22T03:46:45.454Z,68.10
2018-11-22T03:47:45.341Z,70.90
2018-11-22T03:48:45.359Z,70.00
2018-11-22T03:49:50.394Z,71.30
2018-11-22T03:50:45.380Z,66.90
2018-11-22T03:51:45.397Z,68.90
2018-11-22T03:52:45.407Z,70.00
2018-11-22T03:53:45.422Z,68.30
2018-11-22T03:54:45.587Z,69.50
2018-11-22T03:55:45.442Z,67.70
2018-11-22T03:56:45.586Z,65.00
2018-11-22T03:57:45.499Z,66.90
2018-11-22T03:58:45.493Z,67.40
2018-11-22T03:59:45.597Z,61.20
2018-11-22T04:00:45.520Z,65.80
2018-11-22T04:01:45.527Z,62.50
2018-11-22T04:02:45.547Z,60.10
2018-11-22T04:03:45.683Z,58.60
2018-11-22T04:04:45.750Z,58.40
2018-11-22T04:05:45.706Z,62.10
2018-11-22T04:06:45.589Z,56.10
2018-11-22T04:07:45.658Z,59.90
2018-11-22T04:08:45.639Z,60.50
2018-11-22T04:09:45.644Z,57.10
2018-11-22T04:10:45.779Z,57.20
2018-11-22T04:11:45.758Z,55.60
2018-11-22T04:12:45.804Z,50.80
2018-11-22T04:13:45.689Z,59.10
2018-11-22T04:14:45.714Z,54.80
2018-11-22T04:15:45.848Z,52.50
2018-11-22T04:16:45.783Z,54.20
2018-11-22T04:17:45.875Z,53.50
2018-11-22T04:18:45.753Z,52.00
2018-11-22T04:19:45.788Z,47.90
2018-11-22T04:20:45.800Z,48.20
2018-11-22T04:21:45.899Z,51.60
2018-11-22T04:22:45.818Z,49.60
2018-11-22T04:23:45.838Z,50.20
2018-11-22T04:24:45.875Z,51.80
2018-11-22T04:25:45.857Z,48.60
2018-11-22T04:26:46.097Z,47.10
2018-11-22T04:27:45.888Z,46.20
2018-11-22T04:28:45.907Z,46.90
2018-11-22T04:29:46.039Z,46.90
2018-11-22T04:30:45.931Z,46.40
2018-11-22T04:31:46.074Z,44.00
2018-11-22T04:32:46.233Z,49.10
2018-11-22T04:33:45.966Z,43.40
2018-11-22T04:34:45.979Z,43.10
2018-11-22T04:35:46.005Z,41.00
2018-11-22T04:36:46.010Z,40.40
2018-11-22T04:37:46.094Z,42.20
2018-11-22T04:38:46.163Z,44.00
2018-11-22T04:39:46.048Z,40.00
2018-11-22T04:40:46.182Z,43.20
2018-11-22T04:41:46.082Z,40.10
2018-11-22T04:42:46.108Z,39.00
2018-11-22T04:43:46.109Z,40.00
2018-11-22T04:44:46.115Z,38.90
2018-11-22T04:45:46.256Z,37.00
2018-11-22T04:46:46.317Z,38.80
2018-11-22T04:47:46.291Z,34.00
2018-11-22T04:48:46.185Z,39.30
2018-11-22T04:49:46.191Z,37.20
2018-11-22T04:50:46.331Z,38.90
2018-11-22T04:51:46.272Z,37.40
2018-11-22T04:52:46.226Z,36.60
2018-11-22T04:53:46.246Z,33.50
2018-11-22T04:54:46.386Z,35.00
2018-11-22T04:55:46.266Z,39.10
2018-11-22T04:56:46.510Z,36.60
2018-11-22T04:57:46.306Z,35.60
2018-11-22T04:58:46.335Z,35.40
2018-11-22T04:59:46.331Z,37.00
2018-11-22T05:00:46.349Z,36.00
2018-11-22T05:01:46.545Z,37.60
2018-11-22T05:02:46.388Z,36.90
2018-11-22T05:03:46.383Z,35.10
2018-11-22T05:04:46.522Z,33.60
2018-11-22T05:05:46.533Z,38.20
2018-11-22T05:06:46.476Z,35.50
2018-11-22T05:07:46.451Z,38.40
2018-11-22T05:08:46.463Z,39.60
2018-11-22T05:09:46.468Z,45.20
2018-11-22T05:10:46.487Z,42.30
2018-11-22T05:11:46.718Z,33.80
2018-11-22T05:12:46.502Z,39.00
2018-11-22T05:13:46.536Z,36.70
2018-11-22T05:14:46.658Z,35.50
2018-11-22T05:15:46.552Z,37.70
2018-11-22T05:16:46.623Z,40.30
2018-11-22T05:17:46.587Z,37.60
2018-11-22T05:18:46.601Z,38.50
2018-11-22T05:19:46.614Z,37.80
2018-11-22T05:20:46.619Z,37.80
2018-11-22T05:21:46.823Z,35.50
2018-11-22T05:22:46.638Z,43.10
2018-11-22T05:23:46.652Z,38.20
2018-11-22T05:24:46.684Z,31.20
2018-11-22T05:25:46.684Z,33.30
2018-11-22T05:26:46.875Z,36.60
2018-11-22T05:27:46.843Z,35.90
2018-11-22T05:28:46.857Z,35.70
2018-11-22T05:29:46.746Z,33.00
2018-11-22T05:30:46.793Z,37.70
2018-11-22T05:31:46.878Z,34.70
2018-11-22T05:32:46.784Z,36.10
2018-11-22T05:33:46.795Z,34.00
2018-11-22T05:34:46.807Z,35.90
2018-11-22T05:35:46.869Z,33.90
2018-11-22T05:36:46.944Z,34.50
2018-11-22T05:37:46.857Z,34.40
2018-11-22T05:38:46.989Z,32.10
2018-11-22T05:39:46.883Z,36.60
2018-11-22T05:40:46.915Z,35.00
2018-11-22T05:41:47.010Z,34.80
2018-11-22T05:42:46.939Z,32.80
2018-11-22T05:43:46.982Z,34.40
2018-11-22T05:44:46.950Z,35.20
2018-11-22T05:45:46.968Z,34.20
2018-11-22T05:46:47.127Z,33.70
2018-11-22T05:47:46.995Z,36.90
2018-11-22T05:48:47.313Z,35.70
2018-11-22T05:49:47.035Z,32.50
2018-11-22T05:50:47.155Z,31.90
2018-11-22T05:51:47.323Z,34.60
2018-11-22T05:52:47.189Z,34.90
2018-11-22T05:53:47.198Z,39.90
2018-11-22T05:54:47.091Z,33.60
2018-11-22T05:55:47.121Z,33.40
2018-11-22T05:56:47.336Z,32.90
2018-11-22T05:57:47.129Z,36.10
2018-11-22T05:58:47.263Z,40.70
2018-11-22T05:59:47.157Z,37.30
2018-11-22T06:00:47.218Z,38.00
2018-11-22T06:01:47.275Z,36.10
2018-11-22T06:02:47.322Z,34.20
2018-11-22T06:03:47.211Z,36.90
2018-11-22T06:04:47.228Z,37.80
2018-11-22T06:05:47.363Z,37.80
2018-11-22T06:06:47.404Z,37.20
2018-11-22T06:07:47.266Z,34.80
2018-11-22T06:08:47.280Z,35.60
2018-11-22T06:09:47.291Z,34.70
2018-11-22T06:10:47.304Z,35.00
2018-11-22T06:11:47.418Z,33.60
2018-11-22T06:12:47.355Z,36.50
2018-11-22T06:13:47.477Z,34.00
2018-11-22T06:14:47.370Z,38.90
2018-11-22T06:15:47.494Z,38.40
2018-11-22T06:16:47.480Z,40.20
2018-11-22T06:17:47.394Z,38.00
2018-11-22T06:18:47.534Z,43.50
2018-11-22T06:19:47.549Z,39.90
2018-11-22T06:20:47.563Z,48.30
2018-11-22T06:21:47.553Z,44.00
2018-11-22T06:22:47.462Z,45.60
2018-11-22T06:23:47.474Z,42.30
2018-11-22T06:24:47.511Z,41.30
2018-11-22T06:25:47.522Z,37.00
2018-11-22T06:26:47.681Z,41.80
2018-11-22T06:27:47.542Z,45.30
2018-11-22T06:28:47.569Z,47.80
2018-11-22T06:29:47.577Z,45.90
2018-11-22T06:30:47.697Z,42.90
2018-11-22T06:31:47.742Z,43.50
2018-11-22T06:32:47.600Z,48.60
2018-11-22T06:33:47.626Z,47.60
2018-11-22T06:34:47.636Z,46.50
2018-11-22T06:35:47.766Z,50.20
2018-11-22T06:36:47.701Z,46.70
2018-11-22T06:37:47.791Z,46.60
2018-11-22T06:38:47.693Z,46.60
2018-11-22T06:39:47.701Z,54.30
2018-11-22T06:40:47.838Z,52.30
2018-11-22T06:41:47.782Z,51.20
2018-11-22T06:42:47.858Z,51.50
2018-11-22T06:43:47.878Z,49.90
2018-11-22T06:44:47.774Z,49.30
2018-11-22T06:45:47.782Z,49.50
2018-11-22T06:46:47.964Z,51.60
2018-11-22T06:47:47.799Z,49.70
2018-11-22T06:48:47.811Z,45.90
2018-11-22T06:49:47.835Z,44.60
2018-11-22T06:50:47.832Z,49.90
2018-11-22T06:51:48.081Z,53.00
2018-11-22T06:52:47.884Z,49.40
2018-11-22T06:53:47.892Z,58.20
2018-11-22T06:54:47.899Z,51.20
2018-11-22T06:55:51.635Z,51.70
2018-11-22T06:56:48.021Z,49.80
2018-11-22T06:57:47.952Z,49.80
2018-11-22T06:58:47.953Z,48.10
2018-11-22T06:59:48.091Z,49.00
2018-11-22T07:00:47.985Z,50.60
2018-11-22T07:01:48.265Z,55.20
2018-11-22T07:02:48.003Z,55.70
2018-11-22T07:03:48.013Z,57.60
2018-11-22T07:04:48.041Z,62.60
2018-11-22T07:05:48.166Z,68.50
2018-11-22T07:06:48.332Z,64.50
2018-11-22T07:07:48.075Z,59.10
2018-11-22T07:08:48.079Z,61.60
2018-11-22T07:09:48.097Z,58.50
2018-11-22T07:10:48.233Z,59.50
2018-11-22T07:11:48.124Z,64.10
2018-11-22T07:12:48.129Z,71.60
2018-11-22T07:14:48.160Z,57.50
2018-11-22T07:15:48.325Z,62.30
2018-11-22T07:16:48.243Z,58.80
2018-11-22T07:17:48.195Z,55.60
2018-11-22T07:18:48.212Z,55.90
2018-11-22T07:19:48.269Z,54.60
2018-11-22T07:20:48.406Z,50.10
2018-11-22T07:21:48.374Z,49.00
2018-11-22T07:22:48.264Z,50.30
2018-11-22T07:23:48.274Z,47.00
2018-11-22T07:24:48.293Z,51.00
2018-11-22T07:25:48.522Z,46.10
2018-11-22T07:26:48.309Z,47.70
2018-11-22T07:27:48.350Z,45.60
2018-11-22T07:28:48.353Z,46.90
2018-11-22T07:29:48.357Z,46.80
2018-11-22T07:30:48.463Z,47.70
2018-11-22T07:31:48.509Z,46.20
2018-11-22T07:32:48.414Z,47.30
2018-11-22T07:33:48.527Z,47.60
2018-11-22T07:34:48.439Z,48.00
2018-11-22T07:35:48.578Z,50.30
2018-11-22T07:36:48.442Z,48.30
2018-11-22T07:37:48.459Z,46.80
2018-11-22T07:38:48.474Z,43.90
2018-11-22T07:39:48.482Z,45.60
2018-11-22T07:40:48.486Z,48.80
2018-11-22T07:41:48.672Z,46.50
2018-11-22T07:42:50.625Z,46.00
2018-11-22T07:43:48.543Z,43.40
2018-11-22T07:44:48.545Z,43.20
2018-11-22T07:45:48.688Z,44.10
2018-11-22T07:46:48.722Z,44.70
2018-11-22T07:47:48.610Z,42.90
2018-11-22T07:48:48.645Z,43.60
2018-11-22T07:49:48.610Z,41.40
2018-11-22T07:50:48.630Z,42.90
2018-11-22T07:51:48.786Z,41.50
2018-11-22T07:52:48.781Z,43.40
2018-11-22T07:53:48.667Z,42.60
2018-11-22T07:54:48.681Z,41.20
2018-11-22T07:55:48.716Z,41.40
2018-11-22T07:56:48.859Z,42.50
2018-11-22T07:57:48.767Z,40.30
2018-11-22T07:58:48.727Z,42.60
2018-11-22T07:59:48.744Z,41.50
2018-11-22T08:00:48.885Z,41.90
2018-11-22T08:01:48.961Z,42.20
2018-11-22T08:02:48.788Z,41.90
2018-11-22T08:03:48.802Z,41.90
2018-11-22T08:04:48.938Z,39.10
2018-11-22T08:05:48.947Z,39.50
2018-11-22T08:06:49.115Z,39.90
2018-11-22T08:07:48.977Z,38.80
2018-11-22T08:08:48.859Z,38.00
2018-11-22T08:09:49.000Z,37.80
2018-11-22T08:10:48.886Z,38.60
2018-11-22T08:11:49.004Z,33.60
2018-11-22T08:12:49.012Z,34.90
2018-11-22T08:13:49.054Z,34.30
2018-11-22T08:14:48.954Z,33.40
2018-11-22T08:15:48.959Z,31.40
2018-11-22T08:16:49.124Z,33.60
2018-11-22T08:17:48.993Z,32.50
2018-11-22T08:18:48.993Z,33.30
2018-11-22T08:19:49.014Z,31.70
2018-11-22T08:20:49.049Z,29.60
2018-11-22T08:21:49.037Z,28.70
2018-11-22T08:22:49.276Z,28.10
2018-11-22T08:23:49.067Z,29.50
2018-11-22T08:24:49.082Z,27.90
2018-11-22T08:25:49.136Z,29.60
2018-11-22T08:26:49.273Z,29.90
2018-11-22T08:27:49.391Z,28.50
2018-11-22T08:28:49.135Z,29.20
2018-11-22T08:29:49.267Z,27.70
2018-11-22T08:30:49.284Z,29.60
2018-11-22T08:31:49.172Z,27.30
2018-11-22T08:32:52.659Z,26.70
2018-11-22T08:33:49.490Z,27.20
2018-11-22T08:34:49.263Z,26.80
2018-11-22T08:35:49.224Z,27.30
2018-11-22T08:36:49.254Z,26.50
2018-11-22T08:37:49.373Z,26.80
2018-11-22T08:38:49.408Z,24.90
2018-11-22T08:39:49.310Z,23.60
2018-11-22T08:40:49.292Z,23.90
2018-11-22T08:41:49.307Z,23.30
2018-11-22T08:42:55.152Z,23.30
2018-11-22T08:43:49.610Z,23.40
2018-11-22T08:44:49.474Z,24.90
2018-11-22T08:45:49.369Z,24.50
2018-11-22T08:46:49.373Z,25.60
2018-11-22T08:47:49.390Z,25.30
2018-11-22T08:48:49.498Z,25.80
2018-11-22T08:49:49.541Z,27.20
2018-11-22T08:50:49.420Z,27.40
2018-11-22T08:51:49.448Z,27.00
2018-11-22T08:52:49.463Z,28.90
2018-11-22T08:53:49.745Z,28.60
2018-11-22T08:54:49.607Z,28.80
2018-11-22T08:55:49.511Z,28.70
2018-11-22T08:56:49.634Z,28.60
2018-11-22T08:57:49.527Z,28.20
2018-11-22T08:58:49.701Z,29.60
2018-11-22T08:59:49.553Z,29.20
2018-11-22T09:00:49.693Z,26.70
2018-11-22T09:01:49.582Z,26.10
2018-11-22T09:02:49.621Z,25.70
2018-11-22T09:03:49.883Z,24.20
2018-11-22T09:04:49.679Z,22.30
2018-11-22T09:05:49.628Z,22.70
2018-11-22T09:06:49.772Z,20.70
2018-11-22T09:07:49.794Z,21.80
2018-11-22T09:08:49.728Z,21.60
2018-11-22T09:09:49.683Z,20.10
2018-11-22T09:10:49.720Z,19.60
2018-11-22T09:11:49.852Z,20.10
2018-11-22T09:12:49.867Z,18.80
2018-11-22T09:13:49.933Z,18.70
2018-11-22T09:14:49.759Z,18.50
2018-11-22T09:15:49.800Z,18.90
2018-11-22T09:16:49.925Z,17.20
2018-11-22T09:17:49.831Z,16.70
2018-11-22T09:18:50.014Z,16.40
2018-11-22T09:19:49.868Z,16.40
2018-11-22T09:20:49.873Z,15.30
2018-11-22T09:21:49.943Z,14.90
2018-11-22T09:22:49.899Z,16.00
2018-11-22T09:23:50.016Z,15.60
2018-11-22T09:24:49.955Z,16.00
2018-11-22T09:25:50.080Z,16.40
2018-11-22T09:26:49.969Z,16.20
2018-11-22T09:27:49.990Z,15.20
2018-11-22T09:28:50.125Z,15.80
2018-11-22T09:29:50.023Z,15.80
2018-11-22T09:30:50.049Z,15.70
2018-11-22T09:31:50.063Z,14.20
2018-11-22T09:32:50.208Z,15.20
2018-11-22T09:33:50.242Z,14.70
2018-11-22T09:34:50.142Z,15.20
2018-11-22T09:35:50.183Z,14.60
2018-11-22T09:36:50.164Z,14.30
2018-11-22T09:37:50.174Z,15.10
2018-11-22T09:38:50.466Z,14.30
2018-11-22T09:39:50.334Z,14.70
2018-11-22T09:40:50.229Z,14.30
2018-11-22T09:41:50.256Z,14.90
2018-11-22T09:42:50.281Z,14.00
2018-11-22T09:43:50.420Z,14.20
2018-11-22T09:44:50.313Z,13.20
2018-11-22T09:45:50.452Z,14.30
2018-11-22T09:46:50.351Z,13.60
2018-11-22T09:47:50.495Z,13.80
2018-11-22T09:48:50.695Z,14.10
2018-11-22T09:49:50.427Z,15.00
2018-11-22T09:50:50.427Z,14.50
2018-11-22T09:51:50.480Z,15.90
2018-11-22T09:52:50.463Z,14.90
2018-11-22T09:53:50.607Z,14.00
2018-11-22T09:54:50.519Z,14.20
2018-11-22T09:55:50.545Z,14.60
2018-11-22T09:56:50.535Z,13.30
2018-11-22T09:57:50.694Z,12.20
2018-11-22T09:58:50.751Z,12.10
2018-11-22T09:59:50.611Z,12.40
2018-11-22T10:00:50.647Z,12.80
2018-11-22T10:01:50.651Z,11.60
2018-11-22T10:02:50.684Z,11.30
2018-11-22T10:03:50.912Z,10.50
2018-11-22T10:04:50.987Z,9.90
2018-11-22T10:05:50.826Z,10.90
2018-11-22T10:06:50.879Z,10.10
2018-11-22T10:07:50.786Z,10.90
2018-11-22T10:08:50.908Z,10.80
2018-11-22T10:09:50.812Z,10.50
2018-11-22T10:10:50.844Z,10.30
2018-11-22T10:11:50.978Z,11.30
2018-11-22T10:12:50.929Z,9.90
2018-11-22T10:13:51.015Z,10.50
2018-11-22T10:14:50.925Z,10.60
2018-11-22T10:15:50.950Z,11.00
2018-11-22T10:16:51.015Z,9.30
2018-11-22T10:17:50.996Z,10.10
2018-11-22T10:18:51.126Z,11.70
2018-11-22T10:19:51.024Z,13.60
2018-11-22T10:20:51.178Z,11.60
2018-11-22T10:21:51.073Z,11.50
2018-11-22T10:22:51.092Z,12.50
2018-11-22T10:23:51.286Z,11.70
2018-11-22T10:24:51.260Z,11.90
2018-11-22T10:25:51.157Z,11.10
2018-11-22T10:26:51.177Z,10.50
2018-11-22T10:27:51.205Z,10.80
2018-11-22T10:28:51.330Z,9.10
2018-11-22T10:29:51.290Z,9.60
2018-11-22T10:30:51.317Z,9.40
2018-11-22T10:31:51.344Z,8.40
2018-11-22T10:32:51.305Z,9.40
2018-11-22T10:33:51.430Z,9.40
2018-11-22T10:34:51.370Z,9.00
2018-11-22T10:35:51.507Z,10.30
2018-11-22T10:36:51.412Z,9.50
2018-11-22T10:37:51.687Z,7.90
2018-11-22T10:38:51.544Z,8.30
2018-11-22T10:39:51.474Z,8.90
2018-11-22T10:40:51.621Z,8.10
2018-11-22T10:41:51.523Z,9.40
2018-11-22T10:42:51.537Z,9.80
2018-11-22T10:43:51.633Z,10.20
2018-11-22T10:44:51.595Z,9.10
2018-11-22T10:45:51.609Z,8.50
2018-11-22T10:46:51.639Z,8.30
2018-11-22T10:47:51.660Z,9.20
2018-11-22T10:48:51.831Z,9.20
2018-11-22T10:49:51.703Z,9.00
2018-11-22T10:50:51.855Z,8.50
2018-11-22T10:51:51.757Z,8.70
2018-11-22T10:52:51.798Z,9.10
2018-11-22T10:53:51.908Z,8.90
2018-11-22T10:54:51.826Z,10.70
2018-11-22T10:55:52.004Z,10.20
2018-11-22T10:56:51.866Z,9.60
2018-11-22T10:57:53.901Z,9.10
2018-11-22T10:58:52.075Z,8.90
2018-11-22T10:59:51.951Z,8.40
2018-11-22T11:00:51.982Z,8.40
2018-11-22T11:01:52.014Z,10.00
2018-11-22T11:02:52.144Z,10.10
2018-11-22T11:03:52.139Z,9.00
2018-11-22T11:04:52.104Z,7.30
2018-11-22T11:05:52.098Z,8.50
2018-11-22T11:06:52.262Z,7.90
2018-11-22T11:07:52.140Z,8.90
2018-11-22T11:08:52.257Z,9.40
2018-11-22T11:09:52.239Z,7.80
2018-11-22T11:10:52.336Z,8.10
2018-11-22T11:11:52.231Z,8.30
2018-11-22T11:12:52.257Z,8.50
2018-11-22T11:13:52.334Z,9.60
2018-11-22T11:14:52.514Z,9.30
2018-11-22T11:15:52.351Z,10.00
2018-11-22T11:16:52.369Z,9.60
2018-11-22T11:17:52.556Z,9.80
2018-11-22T11:18:52.412Z,10.30
2018-11-22T11:19:52.456Z,10.60
2018-11-22T11:20:52.586Z,10.10
2018-11-22T11:21:52.502Z,10.40
2018-11-22T11:22:52.712Z,9.90
2018-11-22T11:23:52.548Z,11.60
2018-11-22T11:24:52.623Z,10.40
2018-11-22T11:25:52.581Z,9.90
2018-11-22T11:26:52.634Z,9.90
2018-11-22T11:27:52.908Z,10.50
2018-11-22T11:28:52.666Z,12.80
2018-11-22T11:29:52.687Z,12.20
2018-11-22T11:30:52.738Z,12.20
2018-11-22T11:31:52.742Z,11.40
2018-11-22T11:32:52.876Z,11.00
2018-11-22T11:33:52.909Z,12.90
2018-11-22T11:34:52.856Z,10.30
2018-11-22T11:35:52.854Z,12.40
2018-11-22T11:36:52.875Z,11.40
2018-11-22T11:37:52.958Z,11.90
2018-11-22T11:38:52.927Z,12.60
2018-11-22T11:39:52.939Z,12.90
2018-11-22T11:40:52.970Z,12.20
2018-11-22T11:41:53.007Z,12.30
2018-11-22T11:42:53.074Z,11.40
2018-11-22T11:43:53.174Z,12.00
2018-11-22T11:44:53.075Z,10.70
2018-11-22T11:45:53.156Z,13.80
2018-11-22T11:46:53.148Z,11.70
2018-11-22T11:47:53.199Z,9.90
2018-11-22T11:48:53.304Z,11.40
2018-11-22T11:49:53.333Z,12.10
2018-11-22T11:50:53.407Z,11.90
2018-11-22T11:51:53.270Z,12.70
2018-11-22T11:52:53.315Z,10.60
2018-11-22T11:53:53.443Z,10.90
2018-11-22T11:54:53.360Z,10.80
2018-11-22T11:55:53.428Z,12.40
2018-11-22T11:56:53.398Z,10.70
2018-11-22T11:57:53.431Z,9.40
2018-11-22T11:58:53.614Z,10.70
2018-11-22T11:59:53.474Z,9.60
2018-11-22T12:00:53.520Z,11.40
2018-11-22T12:01:53.536Z,9.90
2018-11-22T12:02:53.566Z,7.60
2018-11-22T12:03:53.912Z,9.30
2018-11-22T12:04:53.745Z,8.30
2018-11-22T12:05:53.663Z,8.40
2018-11-22T12:06:53.690Z,8.60
2018-11-22T12:07:53.700Z,8.40
2018-11-22T12:08:53.847Z,9.00
2018-11-22T12:09:56.306Z,7.40
2018-11-22T12:10:53.933Z,7.30
2018-11-22T12:11:53.834Z,7.40
2018-11-22T12:12:53.852Z,8.30
2018-11-22T12:13:53.869Z,7.30
2018-11-22T12:14:53.900Z,6.60
2018-11-22T12:15:54.041Z,7.40
2018-11-22T12:16:53.960Z,7.00
2018-11-22T12:17:54.035Z,6.90
2018-11-22T12:18:54.009Z,6.80
2018-11-22T12:19:54.053Z,6.70
2018-11-22T12:20:54.246Z,6.60
2018-11-22T12:21:54.104Z,6.60
2018-11-22T12:22:54.128Z,6.60
2018-11-22T12:23:54.214Z,7.50
2018-11-22T12:24:54.211Z,8.70
2018-11-22T12:25:54.268Z,8.40
2018-11-22T12:26:54.366Z,6.40
2018-11-22T12:27:54.262Z,7.50
2018-11-22T12:28:54.314Z,6.90
2018-11-22T12:29:54.465Z,6.10
2018-11-22T12:30:54.469Z,5.90
2018-11-22T12:31:54.396Z,5.90
2018-11-22T12:32:54.549Z,6.10
2018-11-22T12:33:54.447Z,6.40
2018-11-22T12:34:54.488Z,6.00
2018-11-22T12:35:54.680Z,5.80
2018-11-22T12:36:54.598Z,5.50
2018-11-22T12:37:54.601Z,5.40
2018-11-22T12:38:54.607Z,7.10
2018-11-22T12:39:54.678Z,5.50
2018-11-22T12:40:54.833Z,6.80
2018-11-22T12:41:54.805Z,5.20
2018-11-22T12:42:54.841Z,4.30
2018-11-22T12:43:54.866Z,5.20
2018-11-22T12:44:54.901Z,5.20
2018-11-22T12:45:54.967Z,6.20
2018-11-22T12:46:54.835Z,5.00
2018-11-22T12:47:54.992Z,4.70
2018-11-22T12:48:54.907Z,6.20
2018-11-22T12:49:55.058Z,4.70
2018-11-22T12:50:55.065Z,4.80
2018-11-22T12:51:55.107Z,4.10
2018-11-22T12:52:55.139Z,4.60
2018-11-22T12:53:55.049Z,5.40
2018-11-22T12:54:55.087Z,5.20